OCN3ME LGIR-EDDF
Flight info
| Callsign | OCN3ME |
|---|---|
| Flight time | 1h 41m |
| Altitude | 36000 |
| Route | EPALO UM749 DIRMI UL613 XANIS DCT DIMIS/N0439F380 DCT PETAK DCT GLOMY DCT ELTIB DCT TUPUS DCT GORPA DCT SIMBA DCT AKINI T161 DEBHI DEBHI1B |
| Aircraft | A320/M-SDE2E3FGIJ1LORWXYZ/HB1 |
Departure
| Time | 2026-05-07 08:56 |
|---|---|
| Airport | Heraklion International Nikos Kazantzakis Airport (LGIR) |
Arrival
| Time | 2026-05-07 10:38 |
|---|---|
| Airport | Frankfurt Main Airport (EDDF) |
| Time | Latitude | Longitude | Altitude | Speed | Heading |
|---|---|---|---|---|---|
| 2026-05-07 08:20 | 35.33872 | 25.17660 | 91 ft | 0 kts | 321° |
| 2026-05-07 08:49 | 35.33871 | 25.17660 | 91 ft | 0 kts | 321° |
| 2026-05-07 08:51 | 35.33883 | 25.17648 | 91 ft | 10 kts | 317° |
| 2026-05-07 08:51 | 35.33908 | 25.17557 | 90 ft | 12 kts | 271° |
| 2026-05-07 08:51 | 35.33915 | 25.17451 | 88 ft | 13 kts | 277° |
| 2026-05-07 08:52 | 35.33924 | 25.17343 | 84 ft | 13 kts | 275° |
| 2026-05-07 08:52 | 35.33930 | 25.17231 | 81 ft | 13 kts | 275° |
| 2026-05-07 08:52 | 35.33939 | 25.17114 | 73 ft | 14 kts | 275° |
| 2026-05-07 08:52 | 35.33951 | 25.16994 | 73 ft | 14 kts | 287° |
| 2026-05-07 08:53 | 35.34005 | 25.16891 | 71 ft | 14 kts | 304° |
| 2026-05-07 08:53 | 35.34052 | 25.16894 | 68 ft | 8 kts | 82° |
| 2026-05-07 08:53 | 35.34050 | 25.16937 | 74 ft | 0 kts | 95° |
| 2026-05-07 08:55 | 35.34050 | 25.16938 | 76 ft | 3 kts | 95° |
| 2026-05-07 08:55 | 35.34025 | 25.17294 | 86 ft | 78 kts | 95° |
| 2026-05-07 08:56 | 35.33963 | 25.18206 | 102 ft | 135 kts | 95° |
| 2026-05-07 08:56 | 35.33895 | 25.19483 | 455 ft | 150 kts | 91° |
| 2026-05-07 08:56 | 35.33824 | 25.20744 | 1165 ft | 149 kts | 88° |
| 2026-05-07 08:56 | 35.34087 | 25.22008 | 1604 ft | 165 kts | 59° |
| 2026-05-07 08:57 | 35.34956 | 25.23008 | 1927 ft | 188 kts | 25° |
| 2026-05-07 08:57 | 35.36313 | 25.23205 | 2196 ft | 212 kts | 346° |
| 2026-05-07 08:57 | 35.37557 | 25.22188 | 2632 ft | 225 kts | 303° |
| 2026-05-07 08:57 | 35.38279 | 25.20490 | 3424 ft | 225 kts | 294° |
| 2026-05-07 08:58 | 35.38941 | 25.18750 | 4250 ft | 226 kts | 293° |
| 2026-05-07 08:58 | 35.39609 | 25.16975 | 4821 ft | 232 kts | 294° |
| 2026-05-07 08:58 | 35.40396 | 25.15264 | 4970 ft | 232 kts | 312° |
| 2026-05-07 08:58 | 35.41723 | 25.14181 | 5002 ft | 232 kts | 339° |
| 2026-05-07 08:59 | 35.43344 | 25.13465 | 5013 ft | 265 kts | 340° |
| 2026-05-07 08:59 | 35.45117 | 25.12692 | 5009 ft | 274 kts | 340° |
| 2026-05-07 08:59 | 35.46940 | 25.11896 | 5571 ft | 280 kts | 340° |
| 2026-05-07 08:59 | 35.48778 | 25.11089 | 6529 ft | 281 kts | 340° |
| 2026-05-07 09:00 | 35.50620 | 25.10280 | 7418 ft | 282 kts | 340° |
| 2026-05-07 09:00 | 35.52469 | 25.09468 | 8331 ft | 283 kts | 340° |
| 2026-05-07 09:00 | 35.54322 | 25.08654 | 9252 ft | 283 kts | 340° |
| 2026-05-07 09:00 | 35.56179 | 25.07835 | 10137 ft | 285 kts | 340° |
| 2026-05-07 09:01 | 35.58097 | 25.06986 | 10556 ft | 304 kts | 340° |
| 2026-05-07 09:01 | 35.60155 | 25.06076 | 10904 ft | 322 kts | 340° |
| 2026-05-07 09:01 | 35.62284 | 25.05135 | 11565 ft | 328 kts | 340° |
| 2026-05-07 09:01 | 35.64442 | 25.04182 | 12314 ft | 331 kts | 340° |
| 2026-05-07 09:02 | 35.66620 | 25.03219 | 13071 ft | 334 kts | 340° |
| 2026-05-07 09:02 | 35.68785 | 25.02262 | 13812 ft | 337 kts | 340° |
| 2026-05-07 09:02 | 35.70991 | 25.01285 | 14474 ft | 340 kts | 340° |
| 2026-05-07 09:02 | 35.73226 | 25.00282 | 15073 ft | 344 kts | 339° |
| 2026-05-07 09:03 | 35.75477 | 24.99239 | 15678 ft | 348 kts | 339° |
| 2026-05-07 09:03 | 35.77745 | 24.98165 | 16289 ft | 351 kts | 338° |
| 2026-05-07 09:03 | 35.80037 | 24.97072 | 16902 ft | 355 kts | 338° |
| 2026-05-07 09:03 | 35.82351 | 24.95969 | 17509 ft | 359 kts | 338° |
| 2026-05-07 09:04 | 35.84692 | 24.94858 | 18099 ft | 362 kts | 338° |
| 2026-05-07 09:04 | 35.87056 | 24.93741 | 18671 ft | 366 kts | 338° |
| 2026-05-07 09:04 | 35.89446 | 24.92614 | 19194 ft | 369 kts | 338° |
| 2026-05-07 09:04 | 35.91851 | 24.91479 | 19735 ft | 371 kts | 338° |
| 2026-05-07 09:05 | 35.94269 | 24.90335 | 20276 ft | 373 kts | 337° |
| 2026-05-07 09:05 | 35.96701 | 24.89185 | 20819 ft | 376 kts | 337° |
| 2026-05-07 09:05 | 35.99150 | 24.88027 | 21354 ft | 378 kts | 337° |
| 2026-05-07 09:05 | 36.01613 | 24.86866 | 21863 ft | 380 kts | 337° |
| 2026-05-07 09:06 | 36.04087 | 24.85680 | 22360 ft | 382 kts | 334° |
| 2026-05-07 09:06 | 36.06418 | 24.84112 | 22853 ft | 382 kts | 324° |
| 2026-05-07 09:06 | 36.08526 | 24.82104 | 23345 ft | 384 kts | 320° |
| 2026-05-07 09:06 | 36.10612 | 24.80031 | 23819 ft | 386 kts | 320° |
| 2026-05-07 09:07 | 36.12682 | 24.77974 | 24215 ft | 388 kts | 320° |
| 2026-05-07 09:07 | 36.14789 | 24.75879 | 24619 ft | 390 kts | 320° |
| 2026-05-07 09:07 | 36.16909 | 24.73776 | 25016 ft | 392 kts | 320° |
| 2026-05-07 09:07 | 36.19042 | 24.71662 | 25407 ft | 394 kts | 320° |
| 2026-05-07 09:08 | 36.21186 | 24.69538 | 25797 ft | 396 kts | 319° |
| 2026-05-07 09:08 | 36.23337 | 24.67404 | 26179 ft | 397 kts | 319° |
| 2026-05-07 09:08 | 36.25498 | 24.65254 | 26558 ft | 399 kts | 319° |
| 2026-05-07 09:08 | 36.27671 | 24.63091 | 26927 ft | 401 kts | 319° |
| 2026-05-07 09:09 | 36.29851 | 24.60918 | 27295 ft | 403 kts | 319° |
| 2026-05-07 09:09 | 36.32043 | 24.58729 | 27652 ft | 405 kts | 319° |
| 2026-05-07 09:09 | 36.34242 | 24.56530 | 28016 ft | 407 kts | 319° |
| 2026-05-07 09:09 | 36.36453 | 24.54314 | 28379 ft | 409 kts | 319° |
| 2026-05-07 09:10 | 36.38672 | 24.52090 | 28726 ft | 411 kts | 319° |
| 2026-05-07 09:10 | 36.40907 | 24.49853 | 29072 ft | 413 kts | 319° |
| 2026-05-07 09:10 | 36.43147 | 24.47611 | 29416 ft | 415 kts | 319° |
| 2026-05-07 09:10 | 36.45404 | 24.45352 | 29756 ft | 417 kts | 319° |
| 2026-05-07 09:11 | 36.47668 | 24.43082 | 30092 ft | 419 kts | 319° |
| 2026-05-07 09:11 | 36.49942 | 24.40801 | 30389 ft | 421 kts | 319° |
| 2026-05-07 09:11 | 36.52220 | 24.38515 | 30683 ft | 421 kts | 318° |
| 2026-05-07 09:11 | 36.54506 | 24.36221 | 31000 ft | 422 kts | 318° |
| 2026-05-07 09:12 | 36.56787 | 24.33929 | 31303 ft | 422 kts | 318° |
| 2026-05-07 09:12 | 36.59037 | 24.31664 | 31632 ft | 421 kts | 318° |
| 2026-05-07 09:12 | 36.61303 | 24.29383 | 32095 ft | 417 kts | 318° |
| 2026-05-07 09:12 | 36.63548 | 24.27117 | 32587 ft | 413 kts | 318° |
| 2026-05-07 09:13 | 36.65763 | 24.24878 | 33076 ft | 408 kts | 318° |
| 2026-05-07 09:13 | 36.67959 | 24.22660 | 33579 ft | 404 kts | 318° |
| 2026-05-07 09:13 | 36.70131 | 24.20469 | 34078 ft | 399 kts | 318° |
| 2026-05-07 09:13 | 36.72277 | 24.18302 | 34525 ft | 395 kts | 317° |
| 2026-05-07 09:14 | 36.74395 | 24.16165 | 35000 ft | 389 kts | 317° |
| 2026-05-07 09:14 | 36.76481 | 24.14058 | 35497 ft | 382 kts | 317° |
| 2026-05-07 09:14 | 36.78525 | 24.11985 | 35958 ft | 376 kts | 317° |
| 2026-05-07 09:14 | 36.80542 | 24.09931 | 36127 ft | 372 kts | 317° |
| 2026-05-07 09:15 | 36.84497 | 24.05907 | 36156 ft | 365 kts | 316° |
| 2026-05-07 09:15 | 36.88432 | 24.01909 | 36169 ft | 364 kts | 316° |
| 2026-05-07 09:16 | 36.92357 | 23.97907 | 36160 ft | 364 kts | 316° |
| 2026-05-07 09:16 | 36.96287 | 23.93908 | 36162 ft | 364 kts | 316° |
| 2026-05-07 09:17 | 37.00210 | 23.89907 | 36156 ft | 364 kts | 316° |
| 2026-05-07 09:17 | 37.04134 | 23.85896 | 36153 ft | 364 kts | 316° |
| 2026-05-07 09:18 | 37.08056 | 23.81883 | 36151 ft | 364 kts | 316° |
| 2026-05-07 09:18 | 37.11982 | 23.77865 | 36149 ft | 365 kts | 316° |
| 2026-05-07 09:19 | 37.15924 | 23.73825 | 36126 ft | 367 kts | 316° |
| 2026-05-07 09:19 | 37.19857 | 23.69793 | 36131 ft | 368 kts | 316° |
| 2026-05-07 09:20 | 37.23816 | 23.65727 | 36135 ft | 368 kts | 316° |
| 2026-05-07 09:20 | 37.27774 | 23.61649 | 36133 ft | 368 kts | 316° |
| 2026-05-07 09:21 | 37.31730 | 23.57566 | 36136 ft | 368 kts | 316° |
| 2026-05-07 09:21 | 37.35686 | 23.53478 | 36138 ft | 368 kts | 316° |
| 2026-05-07 09:22 | 37.39637 | 23.49386 | 36152 ft | 369 kts | 316° |
| 2026-05-07 09:22 | 37.43614 | 23.45264 | 36118 ft | 371 kts | 316° |
| 2026-05-07 09:23 | 37.47615 | 23.41117 | 36111 ft | 374 kts | 316° |
| 2026-05-07 09:23 | 37.57538 | 23.30794 | 36121 ft | 375 kts | 316° |
| 2026-05-07 09:24 | 37.73664 | 23.13965 | 36104 ft | 379 kts | 316° |
| 2026-05-07 09:24 | 37.89859 | 22.96943 | 36132 ft | 381 kts | 315° |
| 2026-05-07 09:25 | 38.05642 | 22.78947 | 36102 ft | 384 kts | 313° |
| 2026-05-07 09:25 | 38.21408 | 22.60599 | 36132 ft | 385 kts | 313° |
| 2026-05-07 09:26 | 38.37278 | 22.42052 | 36131 ft | 389 kts | 313° |
| 2026-05-07 09:26 | 38.53185 | 22.23343 | 36123 ft | 389 kts | 313° |
| 2026-05-07 09:27 | 38.69846 | 22.05547 | 36136 ft | 392 kts | 316° |
| 2026-05-07 09:28 | 38.95305 | 21.79062 | 36141 ft | 396 kts | 316° |
| 2026-05-07 09:28 | 39.12427 | 21.61111 | 36113 ft | 397 kts | 316° |
| 2026-05-07 09:29 | 39.29676 | 21.42894 | 36158 ft | 404 kts | 316° |
| 2026-05-07 09:29 | 39.47113 | 21.24371 | 36145 ft | 408 kts | 316° |
| 2026-05-07 09:30 | 39.64689 | 21.05579 | 36157 ft | 411 kts | 316° |
| 2026-05-07 09:30 | 39.82385 | 20.86491 | 36148 ft | 414 kts | 316° |
| 2026-05-07 09:31 | 40.00218 | 20.67136 | 36151 ft | 421 kts | 316° |
| 2026-05-07 09:31 | 40.09506 | 20.57785 | 36138 ft | 428 kts | 328° |
| 2026-05-07 09:31 | 40.19932 | 20.50226 | 36155 ft | 430 kts | 326° |
| 2026-05-07 09:32 | 40.40839 | 20.34819 | 36146 ft | 433 kts | 326° |
| 2026-05-07 09:32 | 40.61796 | 20.19281 | 36148 ft | 437 kts | 326° |
| 2026-05-07 09:33 | 40.83010 | 20.03436 | 36150 ft | 437 kts | 326° |
| 2026-05-07 09:33 | 41.04173 | 19.87526 | 36131 ft | 437 kts | 326° |
| 2026-05-07 09:34 | 41.25291 | 19.71532 | 36139 ft | 436 kts | 326° |
| 2026-05-07 09:34 | 41.46305 | 19.55462 | 36127 ft | 435 kts | 326° |
| 2026-05-07 09:35 | 41.67307 | 19.39314 | 36109 ft | 438 kts | 326° |
| 2026-05-07 09:35 | 41.88030 | 19.22093 | 36134 ft | 438 kts | 321° |
| 2026-05-07 09:36 | 42.08313 | 19.03752 | 36148 ft | 439 kts | 322° |
| 2026-05-07 09:36 | 42.28616 | 18.85354 | 36152 ft | 440 kts | 321° |
| 2026-05-07 09:37 | 42.48894 | 18.66806 | 36136 ft | 438 kts | 321° |
| 2026-05-07 09:37 | 42.69036 | 18.48245 | 36098 ft | 437 kts | 321° |
| 2026-05-07 09:38 | 42.89150 | 18.29557 | 36110 ft | 438 kts | 321° |
| 2026-05-07 09:38 | 43.09172 | 18.10834 | 36108 ft | 439 kts | 321° |
| 2026-05-07 09:39 | 43.29307 | 17.91815 | 36103 ft | 438 kts | 320° |
| 2026-05-07 09:39 | 43.49345 | 17.72747 | 36128 ft | 437 kts | 320° |
| 2026-05-07 09:40 | 43.68460 | 17.52379 | 36111 ft | 433 kts | 315° |
| 2026-05-07 09:40 | 43.87120 | 17.31276 | 36091 ft | 433 kts | 316° |
| 2026-05-07 09:41 | 44.05722 | 17.10051 | 36094 ft | 432 kts | 315° |
| 2026-05-07 09:41 | 44.16294 | 16.97917 | 36088 ft | 433 kts | 315° |
| 2026-05-07 09:42 | 44.20928 | 16.92565 | 36100 ft | 432 kts | 315° |
| 2026-05-07 09:42 | 44.25549 | 16.87221 | 36090 ft | 431 kts | 315° |
| 2026-05-07 09:43 | 44.34717 | 16.77058 | 36079 ft | 433 kts | 319° |
| 2026-05-07 09:44 | 44.39683 | 16.72272 | 36065 ft | 434 kts | 320° |
| 2026-05-07 09:44 | 44.44648 | 16.67474 | 36075 ft | 433 kts | 319° |
| 2026-05-07 09:45 | 44.49562 | 16.62592 | 36063 ft | 433 kts | 319° |
| 2026-05-07 09:45 | 44.54455 | 16.57670 | 36058 ft | 433 kts | 319° |
| 2026-05-07 09:46 | 44.59330 | 16.52780 | 36055 ft | 434 kts | 319° |
| 2026-05-07 09:46 | 44.64239 | 16.47857 | 36052 ft | 433 kts | 319° |
| 2026-05-07 09:47 | 44.69138 | 16.42924 | 36076 ft | 433 kts | 318° |
| 2026-05-07 09:47 | 44.74037 | 16.37983 | 36069 ft | 433 kts | 318° |
| 2026-05-07 09:48 | 44.78935 | 16.33037 | 36058 ft | 433 kts | 318° |
| 2026-05-07 09:48 | 44.83826 | 16.28077 | 36053 ft | 434 kts | 318° |
| 2026-05-07 09:49 | 44.88724 | 16.23110 | 36047 ft | 434 kts | 318° |
| 2026-05-07 09:49 | 44.92827 | 16.18938 | 36076 ft | 434 kts | 317° |
| 2026-05-07 09:50 | 44.97692 | 16.13992 | 36062 ft | 434 kts | 317° |
| 2026-05-07 09:50 | 45.02578 | 16.09009 | 36069 ft | 433 kts | 317° |
| 2026-05-07 09:51 | 45.07457 | 16.04011 | 36052 ft | 433 kts | 317° |
| 2026-05-07 09:51 | 45.12338 | 15.99002 | 36036 ft | 433 kts | 317° |
| 2026-05-07 09:52 | 45.17223 | 15.93993 | 36059 ft | 434 kts | 317° |
| 2026-05-07 09:52 | 45.22101 | 15.88968 | 36043 ft | 434 kts | 317° |
| 2026-05-07 09:53 | 45.27064 | 15.84055 | 36045 ft | 436 kts | 319° |
| 2026-05-07 09:53 | 45.34699 | 15.76826 | 36036 ft | 436 kts | 319° |
| 2026-05-07 09:54 | 45.54767 | 15.57389 | 36030 ft | 436 kts | 318° |
| 2026-05-07 09:54 | 45.74796 | 15.37815 | 36014 ft | 436 kts | 318° |
| 2026-05-07 09:55 | 45.95418 | 15.18998 | 36039 ft | 439 kts | 320° |
| 2026-05-07 09:55 | 46.16046 | 15.00174 | 35989 ft | 439 kts | 320° |
| 2026-05-07 09:56 | 46.36664 | 14.81204 | 35985 ft | 441 kts | 320° |
| 2026-05-07 09:56 | 46.57388 | 14.61981 | 36004 ft | 443 kts | 320° |
| 2026-05-07 09:57 | 46.78165 | 14.42508 | 35989 ft | 445 kts | 320° |
| 2026-05-07 09:57 | 46.98826 | 14.23011 | 35960 ft | 445 kts | 320° |
| 2026-05-07 09:58 | 47.19596 | 14.03187 | 35971 ft | 446 kts | 320° |
| 2026-05-07 09:58 | 47.40364 | 13.83157 | 36005 ft | 446 kts | 320° |
| 2026-05-07 09:59 | 47.61102 | 13.62991 | 36000 ft | 446 kts | 320° |
| 2026-05-07 09:59 | 47.81818 | 13.42656 | 36021 ft | 446 kts | 320° |
| 2026-05-07 10:00 | 48.02489 | 13.22146 | 36029 ft | 447 kts | 320° |
| 2026-05-07 10:00 | 48.23046 | 13.01295 | 35979 ft | 441 kts | 312° |
| 2026-05-07 10:01 | 48.39182 | 12.74190 | 36009 ft | 435 kts | 306° |
| 2026-05-07 10:01 | 48.55174 | 12.46761 | 35997 ft | 435 kts | 306° |
| 2026-05-07 10:02 | 48.71100 | 12.19169 | 36025 ft | 436 kts | 306° |
| 2026-05-07 10:02 | 48.75968 | 12.03158 | 36005 ft | 416 kts | 274° |
| 2026-05-07 10:02 | 48.77828 | 11.85806 | 36011 ft | 417 kts | 275° |
| 2026-05-07 10:03 | 48.81505 | 11.50984 | 36015 ft | 419 kts | 276° |
| 2026-05-07 10:03 | 48.85760 | 11.21401 | 35990 ft | 428 kts | 299° |
| 2026-05-07 10:03 | 48.89733 | 11.14604 | 35512 ft | 434 kts | 314° |
| 2026-05-07 10:04 | 48.92745 | 11.10439 | 34842 ft | 430 kts | 314° |
| 2026-05-07 10:04 | 48.94941 | 11.07386 | 34409 ft | 426 kts | 314° |
| 2026-05-07 10:04 | 48.97118 | 11.04349 | 33969 ft | 422 kts | 314° |
| 2026-05-07 10:04 | 48.99235 | 11.01384 | 33526 ft | 417 kts | 315° |
| 2026-05-07 10:05 | 49.01385 | 10.98362 | 33011 ft | 414 kts | 315° |
| 2026-05-07 10:05 | 49.03491 | 10.95398 | 32496 ft | 411 kts | 315° |
| 2026-05-07 10:05 | 49.05554 | 10.92490 | 31995 ft | 408 kts | 315° |
| 2026-05-07 10:05 | 49.07627 | 10.89568 | 31478 ft | 404 kts | 315° |
| 2026-05-07 10:06 | 49.09684 | 10.86669 | 30980 ft | 401 kts | 316° |
| 2026-05-07 10:06 | 49.11725 | 10.83793 | 30478 ft | 398 kts | 316° |
| 2026-05-07 10:06 | 49.13752 | 10.80934 | 29992 ft | 394 kts | 316° |
| 2026-05-07 10:06 | 49.15753 | 10.78100 | 29416 ft | 391 kts | 316° |
| 2026-05-07 10:07 | 49.17734 | 10.75279 | 28842 ft | 387 kts | 316° |
| 2026-05-07 10:07 | 49.19693 | 10.72485 | 28285 ft | 383 kts | 316° |
| 2026-05-07 10:07 | 49.21598 | 10.69660 | 27731 ft | 380 kts | 314° |
| 2026-05-07 10:07 | 49.23442 | 10.66789 | 27169 ft | 376 kts | 314° |
| 2026-05-07 10:08 | 49.25240 | 10.63908 | 26639 ft | 372 kts | 314° |
| 2026-05-07 10:08 | 49.27011 | 10.61048 | 26143 ft | 369 kts | 314° |
| 2026-05-07 10:08 | 49.28772 | 10.58214 | 25626 ft | 365 kts | 314° |
| 2026-05-07 10:08 | 49.30523 | 10.55414 | 25126 ft | 362 kts | 314° |
| 2026-05-07 10:09 | 49.32258 | 10.52656 | 24697 ft | 357 kts | 314° |
| 2026-05-07 10:09 | 49.33950 | 10.49978 | 24502 ft | 346 kts | 314° |
| 2026-05-07 10:09 | 49.35615 | 10.47337 | 24132 ft | 341 kts | 313° |
| 2026-05-07 10:09 | 49.37057 | 10.44481 | 23781 ft | 337 kts | 305° |
| 2026-05-07 10:10 | 49.38397 | 10.41544 | 23398 ft | 335 kts | 306° |
| 2026-05-07 10:10 | 49.39734 | 10.38629 | 22978 ft | 333 kts | 306° |
| 2026-05-07 10:10 | 49.41062 | 10.35730 | 22563 ft | 331 kts | 306° |
| 2026-05-07 10:10 | 49.42384 | 10.32840 | 22155 ft | 329 kts | 305° |
| 2026-05-07 10:11 | 49.43694 | 10.29965 | 21726 ft | 328 kts | 305° |
| 2026-05-07 10:11 | 49.44981 | 10.27133 | 21330 ft | 327 kts | 305° |
| 2026-05-07 10:11 | 49.46297 | 10.24231 | 20935 ft | 325 kts | 305° |
| 2026-05-07 10:11 | 49.47586 | 10.21391 | 20580 ft | 324 kts | 305° |
| 2026-05-07 10:12 | 49.48859 | 10.18587 | 20251 ft | 323 kts | 305° |
| 2026-05-07 10:12 | 49.50134 | 10.15770 | 19927 ft | 320 kts | 305° |
| 2026-05-07 10:12 | 49.51401 | 10.12967 | 19603 ft | 318 kts | 305° |
| 2026-05-07 10:12 | 49.52661 | 10.10180 | 19283 ft | 316 kts | 305° |
| 2026-05-07 10:13 | 49.53918 | 10.07403 | 18968 ft | 317 kts | 305° |
| 2026-05-07 10:13 | 49.55176 | 10.04620 | 18660 ft | 317 kts | 305° |
| 2026-05-07 10:13 | 49.56434 | 10.01829 | 18346 ft | 316 kts | 305° |
| 2026-05-07 10:13 | 49.57687 | 9.99047 | 18003 ft | 315 kts | 305° |
| 2026-05-07 10:14 | 49.58930 | 9.96281 | 17650 ft | 313 kts | 305° |
| 2026-05-07 10:14 | 49.60164 | 9.93527 | 17297 ft | 311 kts | 305° |
| 2026-05-07 10:14 | 49.61390 | 9.90786 | 16944 ft | 310 kts | 304° |
| 2026-05-07 10:14 | 49.62616 | 9.88051 | 16603 ft | 309 kts | 305° |
| 2026-05-07 10:15 | 49.63833 | 9.85335 | 16265 ft | 308 kts | 305° |
| 2026-05-07 10:15 | 49.65049 | 9.82620 | 15931 ft | 307 kts | 305° |
| 2026-05-07 10:15 | 49.66261 | 9.79907 | 15602 ft | 307 kts | 305° |
| 2026-05-07 10:15 | 49.67467 | 9.77201 | 15274 ft | 305 kts | 305° |
| 2026-05-07 10:16 | 49.68667 | 9.74511 | 14948 ft | 303 kts | 305° |
| 2026-05-07 10:16 | 49.69860 | 9.71841 | 14627 ft | 301 kts | 305° |
| 2026-05-07 10:16 | 49.71042 | 9.69193 | 14315 ft | 299 kts | 305° |
| 2026-05-07 10:16 | 49.72217 | 9.66555 | 14001 ft | 297 kts | 305° |
| 2026-05-07 10:17 | 49.73380 | 9.63940 | 13667 ft | 295 kts | 305° |
| 2026-05-07 10:17 | 49.74535 | 9.61337 | 13314 ft | 293 kts | 305° |
| 2026-05-07 10:17 | 49.75680 | 9.58751 | 12975 ft | 290 kts | 304° |
| 2026-05-07 10:17 | 49.76818 | 9.56182 | 12628 ft | 288 kts | 304° |
| 2026-05-07 10:18 | 49.77946 | 9.53632 | 12284 ft | 286 kts | 304° |
| 2026-05-07 10:18 | 49.79067 | 9.51097 | 11946 ft | 285 kts | 303° |
| 2026-05-07 10:18 | 49.80180 | 9.48571 | 11613 ft | 283 kts | 303° |
| 2026-05-07 10:18 | 49.81286 | 9.46062 | 11303 ft | 282 kts | 304° |
| 2026-05-07 10:19 | 49.82387 | 9.43565 | 11044 ft | 279 kts | 304° |
| 2026-05-07 10:19 | 49.83478 | 9.41083 | 11006 ft | 279 kts | 304° |
| 2026-05-07 10:19 | 49.84572 | 9.38595 | 11011 ft | 279 kts | 304° |
| 2026-05-07 10:19 | 49.85664 | 9.36103 | 11013 ft | 279 kts | 302° |
| 2026-05-07 10:20 | 49.86508 | 9.33397 | 11006 ft | 280 kts | 288° |
| 2026-05-07 10:20 | 49.87059 | 9.30506 | 11007 ft | 280 kts | 287° |
| 2026-05-07 10:20 | 49.87610 | 9.27613 | 11012 ft | 280 kts | 287° |
| 2026-05-07 10:20 | 49.88165 | 9.24720 | 11004 ft | 279 kts | 287° |
| 2026-05-07 10:21 | 49.88717 | 9.21849 | 10701 ft | 277 kts | 287° |
| 2026-05-07 10:21 | 49.89264 | 9.19001 | 10362 ft | 275 kts | 287° |
| 2026-05-07 10:21 | 49.89806 | 9.16160 | 10079 ft | 274 kts | 287° |
| 2026-05-07 10:21 | 49.90344 | 9.13336 | 10004 ft | 273 kts | 287° |
| 2026-05-07 10:22 | 49.90879 | 9.10507 | 10022 ft | 273 kts | 287° |
| 2026-05-07 10:22 | 49.91415 | 9.07666 | 10013 ft | 275 kts | 287° |
| 2026-05-07 10:22 | 49.91950 | 9.04826 | 10014 ft | 275 kts | 287° |
| 2026-05-07 10:22 | 49.92488 | 9.01974 | 10016 ft | 275 kts | 287° |
| 2026-05-07 10:23 | 49.93025 | 8.99123 | 10020 ft | 275 kts | 287° |
| 2026-05-07 10:23 | 49.93580 | 8.96284 | 9889 ft | 273 kts | 291° |
| 2026-05-07 10:23 | 49.94550 | 8.93837 | 9499 ft | 271 kts | 313° |
| 2026-05-07 10:23 | 49.96061 | 8.92121 | 9104 ft | 271 kts | 335° |
| 2026-05-07 10:24 | 49.97885 | 8.91440 | 9016 ft | 273 kts | 356° |
| 2026-05-07 10:24 | 49.99795 | 8.91552 | 8988 ft | 276 kts | 6° |
| 2026-05-07 10:24 | 50.01619 | 8.92439 | 8630 ft | 277 kts | 26° |
| 2026-05-07 10:24 | 50.03136 | 8.94279 | 8236 ft | 279 kts | 46° |
| 2026-05-07 10:25 | 50.04169 | 8.96832 | 7846 ft | 281 kts | 66° |
| 2026-05-07 10:25 | 50.04844 | 8.99675 | 7450 ft | 280 kts | 68° |
| 2026-05-07 10:25 | 50.05503 | 9.02507 | 7075 ft | 278 kts | 68° |
| 2026-05-07 10:25 | 50.06159 | 9.05319 | 6700 ft | 275 kts | 68° |
| 2026-05-07 10:26 | 50.06810 | 9.08112 | 6327 ft | 273 kts | 68° |
| 2026-05-07 10:26 | 50.07451 | 9.10874 | 5948 ft | 270 kts | 68° |
| 2026-05-07 10:26 | 50.08086 | 9.13613 | 5560 ft | 268 kts | 68° |
| 2026-05-07 10:26 | 50.08724 | 9.16319 | 5202 ft | 265 kts | 65° |
| 2026-05-07 10:27 | 50.09737 | 9.18658 | 4980 ft | 260 kts | 41° |
| 2026-05-07 10:27 | 50.11251 | 9.20153 | 4981 ft | 259 kts | 18° |
| 2026-05-07 10:27 | 50.13019 | 9.20542 | 4983 ft | 257 kts | 354° |
| 2026-05-07 10:27 | 50.14717 | 9.19770 | 4981 ft | 254 kts | 330° |
| 2026-05-07 10:28 | 50.16020 | 9.18072 | 4984 ft | 237 kts | 309° |
| 2026-05-07 10:28 | 50.16755 | 9.15867 | 4980 ft | 223 kts | 288° |
| 2026-05-07 10:28 | 50.16927 | 9.13550 | 4982 ft | 210 kts | 268° |
| 2026-05-07 10:28 | 50.16684 | 9.11379 | 4981 ft | 196 kts | 261° |
| 2026-05-07 10:29 | 50.16422 | 9.09374 | 4991 ft | 189 kts | 262° |
| 2026-05-07 10:29 | 50.16159 | 9.07344 | 5014 ft | 188 kts | 261° |
| 2026-05-07 10:29 | 50.15902 | 9.05353 | 5011 ft | 187 kts | 262° |
| 2026-05-07 10:30 | 50.15395 | 9.01412 | 4997 ft | 186 kts | 261° |
| 2026-05-07 10:30 | 50.15208 | 8.99417 | 4994 ft | 186 kts | 265° |
| 2026-05-07 10:30 | 50.14922 | 8.97435 | 5000 ft | 189 kts | 256° |
| 2026-05-07 10:30 | 50.14522 | 8.95494 | 4997 ft | 187 kts | 253° |
| 2026-05-07 10:31 | 50.14087 | 8.93576 | 4999 ft | 189 kts | 253° |
| 2026-05-07 10:31 | 50.13641 | 8.91658 | 4997 ft | 188 kts | 253° |
| 2026-05-07 10:31 | 50.13193 | 8.89747 | 4995 ft | 188 kts | 252° |
| 2026-05-07 10:31 | 50.12744 | 8.87830 | 4970 ft | 189 kts | 252° |
| 2026-05-07 10:32 | 50.12292 | 8.85908 | 4774 ft | 188 kts | 253° |
| 2026-05-07 10:32 | 50.11842 | 8.83998 | 4543 ft | 187 kts | 253° |
| 2026-05-07 10:32 | 50.11396 | 8.82106 | 4284 ft | 183 kts | 253° |
| 2026-05-07 10:32 | 50.10976 | 8.80330 | 4052 ft | 167 kts | 253° |
| 2026-05-07 10:33 | 50.10588 | 8.78685 | 3831 ft | 157 kts | 254° |
| 2026-05-07 10:33 | 50.10218 | 8.77116 | 3617 ft | 153 kts | 254° |
| 2026-05-07 10:33 | 50.09854 | 8.75573 | 3413 ft | 151 kts | 254° |
| 2026-05-07 10:33 | 50.09491 | 8.74033 | 3210 ft | 151 kts | 254° |
| 2026-05-07 10:34 | 50.09128 | 8.72499 | 3002 ft | 150 kts | 253° |
| 2026-05-07 10:34 | 50.08772 | 8.70995 | 2809 ft | 148 kts | 253° |
| 2026-05-07 10:34 | 50.08414 | 8.69483 | 2589 ft | 149 kts | 253° |
| 2026-05-07 10:34 | 50.08057 | 8.67981 | 2398 ft | 148 kts | 252° |
| 2026-05-07 10:35 | 50.07700 | 8.66477 | 2189 ft | 148 kts | 253° |
| 2026-05-07 10:35 | 50.07346 | 8.64984 | 1984 ft | 147 kts | 252° |
| 2026-05-07 10:35 | 50.06993 | 8.63497 | 1784 ft | 146 kts | 252° |
| 2026-05-07 10:35 | 50.06642 | 8.62022 | 1577 ft | 144 kts | 252° |
| 2026-05-07 10:36 | 50.06294 | 8.60553 | 1384 ft | 147 kts | 252° |
| 2026-05-07 10:36 | 50.05953 | 8.59060 | 1166 ft | 146 kts | 253° |
| 2026-05-07 10:36 | 50.05576 | 8.57609 | 941 ft | 145 kts | 248° |
| 2026-05-07 10:36 | 50.05230 | 8.56192 | 756 ft | 137 kts | 255° |
| 2026-05-07 10:37 | 50.04928 | 8.54805 | 575 ft | 134 kts | 252° |
| 2026-05-07 10:37 | 50.04601 | 8.53463 | 426 ft | 136 kts | 251° |
| 2026-05-07 10:37 | 50.04269 | 8.52076 | 352 ft | 134 kts | 252° |
| 2026-05-07 10:37 | 50.03997 | 8.50906 | 325 ft | 80 kts | 249° |
| 2026-05-07 10:38 | 50.03861 | 8.50426 | 321 ft | 35 kts | 236° |
| 2026-05-07 10:38 | 50.03772 | 8.50292 | 319 ft | 11 kts | 220° |
| 2026-05-07 10:38 | 50.03732 | 8.50239 | 318 ft | 11 kts | 220° |
| 2026-05-07 10:38 | 50.03643 | 8.50195 | 323 ft | 14 kts | 146° |
| 2026-05-07 10:39 | 50.03644 | 8.50348 | 324 ft | 9 kts | 69° |
| 2026-05-07 10:39 | 50.03659 | 8.50412 | 325 ft | 12 kts | 70° |
| 2026-05-07 10:39 | 50.03714 | 8.50641 | 327 ft | 18 kts | 69° |
| 2026-05-07 10:39 | 50.03757 | 8.50821 | 332 ft | 18 kts | 69° |
| 2026-05-07 10:40 | 50.03787 | 8.50940 | 330 ft | 17 kts | 69° |
| 2026-05-07 10:40 | 50.03827 | 8.51114 | 333 ft | 17 kts | 70° |
| 2026-05-07 10:40 | 50.03869 | 8.51294 | 331 ft | 22 kts | 70° |
| 2026-05-07 10:40 | 50.03931 | 8.51547 | 335 ft | 26 kts | 70° |
| 2026-05-07 10:41 | 50.03996 | 8.51823 | 333 ft | 28 kts | 70° |
| 2026-05-07 10:41 | 50.04063 | 8.52101 | 340 ft | 26 kts | 69° |
| 2026-05-07 10:41 | 50.04126 | 8.52367 | 350 ft | 26 kts | 69° |
| 2026-05-07 10:41 | 50.04191 | 8.52634 | 356 ft | 27 kts | 69° |
| 2026-05-07 10:42 | 50.04256 | 8.52906 | 359 ft | 27 kts | 70° |
| 2026-05-07 10:42 | 50.04321 | 8.53181 | 366 ft | 26 kts | 70° |
| 2026-05-07 10:42 | 50.04381 | 8.53429 | 372 ft | 23 kts | 70° |
| 2026-05-07 10:42 | 50.04405 | 8.53667 | 375 ft | 23 kts | 84° |
| 2026-05-07 10:43 | 50.04422 | 8.53920 | 375 ft | 25 kts | 84° |
| 2026-05-07 10:43 | 50.04441 | 8.54200 | 375 ft | 27 kts | 84° |
| 2026-05-07 10:43 | 50.04451 | 8.54486 | 368 ft | 21 kts | 97° |
| 2026-05-07 10:43 | 50.04390 | 8.54680 | 362 ft | 22 kts | 133° |
| 2026-05-07 10:44 | 50.04320 | 8.54762 | 357 ft | 0 kts | 155° |
| 2026-05-07 10:44 | 50.04313 | 8.54767 | 357 ft | 6 kts | 155° |
| 2026-05-07 10:44 | 50.04310 | 8.54769 | 359 ft | 0 kts | 155° |
| 2026-05-07 10:44 | 50.04250 | 8.54808 | 355 ft | 24 kts | 160° |
| 2026-05-07 10:45 | 50.04115 | 8.54884 | 354 ft | 12 kts | 159° |
| 2026-05-07 10:45 | 50.04080 | 8.54904 | 351 ft | 0 kts | 159° |
| 2026-05-07 10:46 | 50.04079 | 8.54905 | 351 ft | 2 kts | 159° |
| 2026-05-07 10:46 | 50.04039 | 8.54929 | 356 ft | 6 kts | 155° |
| 2026-05-07 10:47 | 50.04018 | 8.55008 | 355 ft | 11 kts | 81° |
| 2026-05-07 10:47 | 50.04043 | 8.55118 | 356 ft | 11 kts | 69° |
| 2026-05-07 10:47 | 50.04078 | 8.55263 | 356 ft | 18 kts | 69° |
| 2026-05-07 10:47 | 50.04122 | 8.55450 | 353 ft | 19 kts | 70° |
| 2026-05-07 10:48 | 50.04171 | 8.55654 | 360 ft | 21 kts | 69° |
| 2026-05-07 10:48 | 50.04223 | 8.55872 | 354 ft | 22 kts | 69° |
| 2026-05-07 10:48 | 50.04286 | 8.55959 | 355 ft | 11 kts | 352° |
| 2026-05-07 10:48 | 50.04316 | 8.55941 | 359 ft | 0 kts | 337° |
| 2026-05-07 10:49 | 50.04323 | 8.55937 | 358 ft | 6 kts | 339° |
| 2026-05-07 10:49 | 50.04376 | 8.55922 | 360 ft | 8 kts | 5° |